sensor_id;sensor_type;location;lat;lon;timestamp;P1;durP1;ratioP1;P2;durP2;ratioP2
21727;SDS011;11026;50.560;17.852;2024-01-07T00:00:37;31.58;;;23.75;;
21727;SDS011;11026;50.560;17.852;2024-01-07T00:03:05;29.92;;;22.45;;
21727;SDS011;11026;50.560;17.852;2024-01-07T00:05:32;32.10;;;23.38;;
21727;SDS011;11026;50.560;17.852;2024-01-07T00:08:00;35.00;;;26.05;;
21727;SDS011;11026;50.560;17.852;2024-01-07T00:10:29;34.85;;;26.48;;
21727;SDS011;11026;50.560;17.852;2024-01-07T00:12:58;34.95;;;24.88;;
21727;SDS011;11026;50.560;17.852;2024-01-07T00:15:26;30.65;;;22.98;;
21727;SDS011;11026;50.560;17.852;2024-01-07T00:17:53;31.23;;;22.20;;
21727;SDS011;11026;50.560;17.852;2024-01-07T00:20:21;34.58;;;24.02;;
21727;SDS011;11026;50.560;17.852;2024-01-07T00:22:47;33.25;;;22.88;;
21727;SDS011;11026;50.560;17.852;2024-01-07T00:25:14;30.55;;;21.90;;
21727;SDS011;11026;50.560;17.852;2024-01-07T00:27:41;30.23;;;20.05;;
21727;SDS011;11026;50.560;17.852;2024-01-07T00:30:09;31.85;;;21.60;;
21727;SDS011;11026;50.560;17.852;2024-01-07T00:32:36;28.50;;;20.52;;
21727;SDS011;11026;50.560;17.852;2024-01-07T00:35:04;26.38;;;19.65;;
21727;SDS011;11026;50.560;17.852;2024-01-07T00:37:32;28.00;;;19.35;;
21727;SDS011;11026;50.560;17.852;2024-01-07T00:40:01;27.80;;;19.80;;
21727;SDS011;11026;50.560;17.852;2024-01-07T00:42:29;30.25;;;21.52;;
21727;SDS011;11026;50.560;17.852;2024-01-07T00:44:56;26.50;;;19.77;;
21727;SDS011;11026;50.560;17.852;2024-01-07T00:47:23;28.48;;;20.70;;
21727;SDS011;11026;50.560;17.852;2024-01-07T00:49:50;31.27;;;22.08;;
21727;SDS011;11026;50.560;17.852;2024-01-07T00:52:19;32.95;;;22.75;;
21727;SDS011;11026;50.560;17.852;2024-01-07T00:54:47;32.50;;;24.13;;
21727;SDS011;11026;50.560;17.852;2024-01-07T00:59:45;33.25;;;23.88;;
21727;SDS011;11026;50.560;17.852;2024-01-07T01:02:12;35.15;;;23.63;;
21727;SDS011;11026;50.560;17.852;2024-01-07T01:04:39;31.00;;;22.00;;
21727;SDS011;11026;50.560;17.852;2024-01-07T01:07:08;29.25;;;19.42;;
21727;SDS011;11026;50.560;17.852;2024-01-07T01:09:37;27.52;;;18.85;;
21727;SDS011;11026;50.560;17.852;2024-01-07T01:12:05;27.25;;;18.70;;
21727;SDS011;11026;50.560;17.852;2024-01-07T01:17:04;24.65;;;17.00;;
21727;SDS011;11026;50.560;17.852;2024-01-07T01:19:32;26.75;;;17.90;;
21727;SDS011;11026;50.560;17.852;2024-01-07T01:22:00;25.88;;;18.98;;
21727;SDS011;11026;50.560;17.852;2024-01-07T01:24:29;26.40;;;19.13;;
21727;SDS011;11026;50.560;17.852;2024-01-07T01:26:58;22.15;;;16.75;;
21727;SDS011;11026;50.560;17.852;2024-01-07T01:29:26;24.85;;;17.02;;
21727;SDS011;11026;50.560;17.852;2024-01-07T01:31:53;24.05;;;16.60;;
21727;SDS011;11026;50.560;17.852;2024-01-07T01:34:22;23.48;;;15.82;;
21727;SDS011;11026;50.560;17.852;2024-01-07T01:36:49;21.92;;;14.77;;
21727;SDS011;11026;50.560;17.852;2024-01-07T01:39:17;23.80;;;16.73;;
21727;SDS011;11026;50.560;17.852;2024-01-07T01:41:45;26.08;;;17.10;;
21727;SDS011;11026;50.560;17.852;2024-01-07T01:44:11;23.60;;;16.52;;
21727;SDS011;11026;50.560;17.852;2024-01-07T01:46:38;26.13;;;16.58;;
21727;SDS011;11026;50.560;17.852;2024-01-07T01:49:07;19.85;;;13.60;;
21727;SDS011;11026;50.560;17.852;2024-01-07T01:51:35;20.85;;;13.85;;
21727;SDS011;11026;50.560;17.852;2024-01-07T01:54:02;19.98;;;14.57;;
21727;SDS011;11026;50.560;17.852;2024-01-07T01:56:30;22.77;;;16.52;;
21727;SDS011;11026;50.560;17.852;2024-01-07T01:58:59;24.33;;;16.80;;
21727;SDS011;11026;50.560;17.852;2024-01-07T02:01:27;29.42;;;18.17;;
21727;SDS011;11026;50.560;17.852;2024-01-07T02:03:56;29.02;;;19.15;;
21727;SDS011;11026;50.560;17.852;2024-01-07T02:06:25;27.25;;;18.75;;
21727;SDS011;11026;50.560;17.852;2024-01-07T02:08:53;26.63;;;17.70;;
21727;SDS011;11026;50.560;17.852;2024-01-07T02:11:22;28.77;;;18.48;;
21727;SDS011;11026;50.560;17.852;2024-01-07T02:18:54;23.75;;;17.52;;
21727;SDS011;11026;50.560;17.852;2024-01-07T02:21:23;21.88;;;15.75;;
21727;SDS011;11026;50.560;17.852;2024-01-07T02:23:50;20.75;;;14.10;;
21727;SDS011;11026;50.560;17.852;2024-01-07T02:26:19;19.23;;;14.20;;
21727;SDS011;11026;50.560;17.852;2024-01-07T02:28:48;20.45;;;14.80;;
21727;SDS011;11026;50.560;17.852;2024-01-07T02:31:15;23.90;;;15.05;;
21727;SDS011;11026;50.560;17.852;2024-01-07T02:33:45;22.27;;;14.60;;
21727;SDS011;11026;50.560;17.852;2024-01-07T02:36:12;22.90;;;15.20;;
21727;SDS011;11026;50.560;17.852;2024-01-07T02:38:43;24.50;;;17.17;;
21727;SDS011;11026;50.560;17.852;2024-01-07T02:41:10;26.60;;;18.27;;
21727;SDS011;11026;50.560;17.852;2024-01-07T02:43:37;23.60;;;16.30;;
21727;SDS011;11026;50.560;17.852;2024-01-07T02:48:40;21.63;;;13.18;;
21727;SDS011;11026;50.560;17.852;2024-01-07T02:51:08;18.27;;;12.98;;
21727;SDS011;11026;50.560;17.852;2024-01-07T02:53:35;18.92;;;13.70;;
21727;SDS011;11026;50.560;17.852;2024-01-07T02:56:02;21.02;;;14.90;;
21727;SDS011;11026;50.560;17.852;2024-01-07T02:58:29;24.50;;;16.13;;
21727;SDS011;11026;50.560;17.852;2024-01-07T03:00:57;22.27;;;16.05;;
21727;SDS011;11026;50.560;17.852;2024-01-07T03:03:24;23.67;;;16.23;;
21727;SDS011;11026;50.560;17.852;2024-01-07T03:05:51;22.83;;;17.20;;
21727;SDS011;11026;50.560;17.852;2024-01-07T03:08:18;23.27;;;16.55;;
21727;SDS011;11026;50.560;17.852;2024-01-07T03:10:45;24.58;;;17.25;;
21727;SDS011;11026;50.560;17.852;2024-01-07T03:13:12;24.48;;;16.48;;
21727;SDS011;11026;50.560;17.852;2024-01-07T03:15:40;25.00;;;16.95;;
21727;SDS011;11026;50.560;17.852;2024-01-07T03:18:07;24.40;;;17.10;;
21727;SDS011;11026;50.560;17.852;2024-01-07T03:20:35;25.45;;;16.42;;
21727;SDS011;11026;50.560;17.852;2024-01-07T03:23:02;24.67;;;16.20;;
21727;SDS011;11026;50.560;17.852;2024-01-07T03:25:30;20.40;;;15.40;;
21727;SDS011;11026;50.560;17.852;2024-01-07T03:27:59;20.50;;;14.55;;
21727;SDS011;11026;50.560;17.852;2024-01-07T03:32:57;18.02;;;12.07;;
21727;SDS011;11026;50.560;17.852;2024-01-07T03:35:24;16.52;;;11.48;;
21727;SDS011;11026;50.560;17.852;2024-01-07T03:37:51;18.30;;;12.32;;
21727;SDS011;11026;50.560;17.852;2024-01-07T03:40:19;15.73;;;11.23;;
21727;SDS011;11026;50.560;17.852;2024-01-07T03:42:47;20.60;;;12.98;;
21727;SDS011;11026;50.560;17.852;2024-01-07T03:45:14;17.60;;;13.38;;
21727;SDS011;11026;50.560;17.852;2024-01-07T03:47:41;18.85;;;13.13;;
21727;SDS011;11026;50.560;17.852;2024-01-07T03:50:10;16.00;;;12.55;;
21727;SDS011;11026;50.560;17.852;2024-01-07T03:52:38;19.52;;;14.02;;
21727;SDS011;11026;50.560;17.852;2024-01-07T03:55:06;19.92;;;14.35;;
21727;SDS011;11026;50.560;17.852;2024-01-07T03:57:34;19.50;;;13.05;;
21727;SDS011;11026;50.560;17.852;2024-01-07T04:00:01;18.52;;;12.77;;
21727;SDS011;11026;50.560;17.852;2024-01-07T04:02:28;19.17;;;13.48;;
21727;SDS011;11026;50.560;17.852;2024-01-07T04:04:55;20.05;;;14.13;;
21727;SDS011;11026;50.560;17.852;2024-01-07T04:07:22;22.33;;;15.27;;
21727;SDS011;11026;50.560;17.852;2024-01-07T04:09:49;22.48;;;16.95;;
21727;SDS011;11026;50.560;17.852;2024-01-07T04:12:16;24.30;;;16.88;;
21727;SDS011;11026;50.560;17.852;2024-01-07T04:14:43;24.02;;;16.70;;
21727;SDS011;11026;50.560;17.852;2024-01-07T04:17:10;24.23;;;16.02;;
21727;SDS011;11026;50.560;17.852;2024-01-07T04:19:37;23.65;;;16.83;;
21727;SDS011;11026;50.560;17.852;2024-01-07T04:22:07;22.88;;;16.52;;
21727;SDS011;11026;50.560;17.852;2024-01-07T04:24:35;24.35;;;14.90;;
21727;SDS011;11026;50.560;17.852;2024-01-07T04:27:02;21.02;;;13.77;;
21727;SDS011;11026;50.560;17.852;2024-01-07T04:29:30;17.50;;;11.75;;
21727;SDS011;11026;50.560;17.852;2024-01-07T04:31:57;15.55;;;10.95;;
21727;SDS011;11026;50.560;17.852;2024-01-07T04:34:24;16.40;;;10.75;;
21727;SDS011;11026;50.560;17.852;2024-01-07T04:36:51;19.50;;;12.18;;
21727;SDS011;11026;50.560;17.852;2024-01-07T04:39:18;17.45;;;11.93;;
21727;SDS011;11026;50.560;17.852;2024-01-07T04:41:47;16.05;;;11.80;;
21727;SDS011;11026;50.560;17.852;2024-01-07T04:44:14;20.50;;;13.23;;
21727;SDS011;11026;50.560;17.852;2024-01-07T04:46:41;22.20;;;15.57;;
21727;SDS011;11026;50.560;17.852;2024-01-07T04:49:08;21.58;;;15.73;;
21727;SDS011;11026;50.560;17.852;2024-01-07T04:51:35;24.10;;;17.23;;
21727;SDS011;11026;50.560;17.852;2024-01-07T04:54:05;24.73;;;16.35;;
21727;SDS011;11026;50.560;17.852;2024-01-07T04:56:32;23.83;;;16.30;;
21727;SDS011;11026;50.560;17.852;2024-01-07T04:59:00;21.67;;;14.95;;
21727;SDS011;11026;50.560;17.852;2024-01-07T05:01:27;18.38;;;13.15;;
21727;SDS011;11026;50.560;17.852;2024-01-07T05:03:54;18.20;;;12.70;;
21727;SDS011;11026;50.560;17.852;2024-01-07T05:06:21;17.98;;;12.93;;
21727;SDS011;11026;50.560;17.852;2024-01-07T05:08:49;17.38;;;12.10;;
21727;SDS011;11026;50.560;17.852;2024-01-07T05:11:16;18.85;;;12.55;;
21727;SDS011;11026;50.560;17.852;2024-01-07T05:13:44;20.00;;;13.70;;
21727;SDS011;11026;50.560;17.852;2024-01-07T05:16:22;21.95;;;14.75;;
21727;SDS011;11026;50.560;17.852;2024-01-07T05:21:21;28.08;;;17.98;;
21727;SDS011;11026;50.560;17.852;2024-01-07T05:23:49;30.50;;;20.02;;
21727;SDS011;11026;50.560;17.852;2024-01-07T05:26:15;34.50;;;19.85;;
21727;SDS011;11026;50.560;17.852;2024-01-07T05:28:42;30.40;;;19.48;;
21727;SDS011;11026;50.560;17.852;2024-01-07T05:31:16;30.38;;;20.23;;
21727;SDS011;11026;50.560;17.852;2024-01-07T05:33:45;61.55;;;32.03;;
21727;SDS011;11026;50.560;17.852;2024-01-07T05:36:13;96.28;;;45.05;;
21727;SDS011;11026;50.560;17.852;2024-01-07T05:38:43;84.07;;;41.58;;
21727;SDS011;11026;50.560;17.852;2024-01-07T05:41:10;93.70;;;45.70;;
21727;SDS011;11026;50.560;17.852;2024-01-07T05:43:37;89.68;;;45.75;;
21727;SDS011;11026;50.560;17.852;2024-01-07T05:46:05;88.60;;;44.67;;
21727;SDS011;11026;50.560;17.852;2024-01-07T05:48:43;59.20;;;34.92;;
21727;SDS011;11026;50.560;17.852;2024-01-07T05:51:11;51.55;;;31.58;;
21727;SDS011;11026;50.560;17.852;2024-01-07T05:53:40;44.65;;;29.25;;
21727;SDS011;11026;50.560;17.852;2024-01-07T05:56:09;44.70;;;29.10;;
21727;SDS011;11026;50.560;17.852;2024-01-07T05:58:36;39.55;;;28.00;;
21727;SDS011;11026;50.560;17.852;2024-01-07T06:01:04;35.20;;;25.30;;
21727;SDS011;11026;50.560;17.852;2024-01-07T06:03:31;34.53;;;24.55;;
21727;SDS011;11026;50.560;17.852;2024-01-07T06:08:30;35.28;;;23.48;;
21727;SDS011;11026;50.560;17.852;2024-01-07T06:10:58;33.08;;;23.88;;
21727;SDS011;11026;50.560;17.852;2024-01-07T06:13:25;32.70;;;24.17;;
21727;SDS011;11026;50.560;17.852;2024-01-07T06:15:53;32.85;;;24.33;;
21727;SDS011;11026;50.560;17.852;2024-01-07T06:18:20;31.70;;;23.35;;
21727;SDS011;11026;50.560;17.852;2024-01-07T06:20:48;33.75;;;23.90;;
21727;SDS011;11026;50.560;17.852;2024-01-07T06:23:15;35.00;;;23.45;;
21727;SDS011;11026;50.560;17.852;2024-01-07T06:25:42;31.85;;;23.73;;
21727;SDS011;11026;50.560;17.852;2024-01-07T06:28:09;32.40;;;23.45;;
21727;SDS011;11026;50.560;17.852;2024-01-07T06:30:39;34.30;;;23.27;;
21727;SDS011;11026;50.560;17.852;2024-01-07T06:33:06;33.20;;;22.90;;
21727;SDS011;11026;50.560;17.852;2024-01-07T06:35:36;31.77;;;23.13;;
21727;SDS011;11026;50.560;17.852;2024-01-07T06:38:04;33.90;;;24.98;;
21727;SDS011;11026;50.560;17.852;2024-01-07T06:40:31;33.45;;;22.80;;
21727;SDS011;11026;50.560;17.852;2024-01-07T06:42:59;35.75;;;24.92;;
21727;SDS011;11026;50.560;17.852;2024-01-07T06:45:26;34.25;;;24.63;;
21727;SDS011;11026;50.560;17.852;2024-01-07T06:47:53;31.15;;;23.48;;
21727;SDS011;11026;50.560;17.852;2024-01-07T06:52:53;31.85;;;22.80;;
21727;SDS011;11026;50.560;17.852;2024-01-07T06:55:21;32.85;;;23.45;;
21727;SDS011;11026;50.560;17.852;2024-01-07T06:57:49;32.67;;;22.63;;
21727;SDS011;11026;50.560;17.852;2024-01-07T07:00:16;31.27;;;22.17;;
21727;SDS011;11026;50.560;17.852;2024-01-07T07:02:46;32.22;;;23.02;;
21727;SDS011;11026;50.560;17.852;2024-01-07T07:05:14;28.95;;;21.65;;
21727;SDS011;11026;50.560;17.852;2024-01-07T07:07:42;31.35;;;23.45;;
21727;SDS011;11026;50.560;17.852;2024-01-07T07:10:09;31.80;;;22.55;;
21727;SDS011;11026;50.560;17.852;2024-01-07T07:15:08;31.20;;;20.95;;
21727;SDS011;11026;50.560;17.852;2024-01-07T07:17:37;41.17;;;27.38;;
21727;SDS011;11026;50.560;17.852;2024-01-07T07:20:05;36.90;;;24.90;;
21727;SDS011;11026;50.560;17.852;2024-01-07T07:22:33;102.85;;;56.45;;
21727;SDS011;11026;50.560;17.852;2024-01-07T07:25:02;133.30;;;64.45;;
21727;SDS011;11026;50.560;17.852;2024-01-07T07:27:29;49.63;;;31.55;;
21727;SDS011;11026;50.560;17.852;2024-01-07T07:29:57;63.95;;;42.25;;
21727;SDS011;11026;50.560;17.852;2024-01-07T07:32:24;64.68;;;42.60;;
21727;SDS011;11026;50.560;17.852;2024-01-07T07:34:51;58.88;;;38.40;;
21727;SDS011;11026;50.560;17.852;2024-01-07T07:37:19;45.28;;;32.97;;
21727;SDS011;11026;50.560;17.852;2024-01-07T07:39:47;40.75;;;30.65;;
21727;SDS011;11026;50.560;17.852;2024-01-07T07:42:15;42.30;;;33.85;;
21727;SDS011;11026;50.560;17.852;2024-01-07T07:44:42;52.80;;;37.70;;
21727;SDS011;11026;50.560;17.852;2024-01-07T07:47:10;61.78;;;40.10;;
21727;SDS011;11026;50.560;17.852;2024-01-07T07:49:43;55.10;;;36.60;;
21727;SDS011;11026;50.560;17.852;2024-01-07T07:52:10;75.82;;;45.22;;
21727;SDS011;11026;50.560;17.852;2024-01-07T07:54:37;65.82;;;39.50;;
21727;SDS011;11026;50.560;17.852;2024-01-07T07:57:05;71.13;;;43.92;;
21727;SDS011;11026;50.560;17.852;2024-01-07T07:59:32;73.00;;;43.58;;
21727;SDS011;11026;50.560;17.852;2024-01-07T08:01:59;129.30;;;70.85;;
21727;SDS011;11026;50.560;17.852;2024-01-07T08:04:27;67.68;;;40.45;;
21727;SDS011;11026;50.560;17.852;2024-01-07T08:06:54;60.63;;;37.13;;
21727;SDS011;11026;50.560;17.852;2024-01-07T08:09:23;49.90;;;31.67;;
21727;SDS011;11026;50.560;17.852;2024-01-07T08:11:52;48.20;;;31.77;;
21727;SDS011;11026;50.560;17.852;2024-01-07T08:19:21;23.90;;;18.65;;
21727;SDS011;11026;50.560;17.852;2024-01-07T08:21:51;27.45;;;19.92;;
21727;SDS011;11026;50.560;17.852;2024-01-07T08:24:20;30.20;;;20.23;;
21727;SDS011;11026;50.560;17.852;2024-01-07T08:26:48;30.77;;;20.77;;
21727;SDS011;11026;50.560;17.852;2024-01-07T08:29:16;31.60;;;21.70;;
21727;SDS011;11026;50.560;17.852;2024-01-07T08:31:43;29.52;;;20.92;;
21727;SDS011;11026;50.560;17.852;2024-01-07T08:34:12;27.73;;;20.15;;
21727;SDS011;11026;50.560;17.852;2024-01-07T08:36:42;27.80;;;19.65;;
21727;SDS011;11026;50.560;17.852;2024-01-07T08:39:09;28.95;;;20.00;;
21727;SDS011;11026;50.560;17.852;2024-01-07T08:41:37;28.83;;;20.58;;
21727;SDS011;11026;50.560;17.852;2024-01-07T08:44:05;27.10;;;18.75;;
21727;SDS011;11026;50.560;17.852;2024-01-07T08:46:35;30.40;;;19.48;;
21727;SDS011;11026;50.560;17.852;2024-01-07T08:49:03;29.58;;;21.33;;
21727;SDS011;11026;50.560;17.852;2024-01-07T08:51:31;31.70;;;21.02;;
21727;SDS011;11026;50.560;17.852;2024-01-07T08:53:58;28.58;;;21.55;;
21727;SDS011;11026;50.560;17.852;2024-01-07T08:56:26;30.90;;;21.13;;
21727;SDS011;11026;50.560;17.852;2024-01-07T09:01:24;28.95;;;19.63;;
21727;SDS011;11026;50.560;17.852;2024-01-07T09:03:52;30.63;;;20.05;;
21727;SDS011;11026;50.560;17.852;2024-01-07T09:06:19;27.40;;;19.25;;
21727;SDS011;11026;50.560;17.852;2024-01-07T09:08:47;28.65;;;19.83;;
21727;SDS011;11026;50.560;17.852;2024-01-07T09:11:14;25.33;;;20.17;;
21727;SDS011;11026;50.560;17.852;2024-01-07T09:13:45;24.48;;;19.10;;
21727;SDS011;11026;50.560;17.852;2024-01-07T09:16:15;25.13;;;18.50;;
21727;SDS011;11026;50.560;17.852;2024-01-07T09:18:44;26.25;;;18.67;;
21727;SDS011;11026;50.560;17.852;2024-01-07T09:21:12;25.63;;;19.02;;
21727;SDS011;11026;50.560;17.852;2024-01-07T09:23:38;26.85;;;18.45;;
21727;SDS011;11026;50.560;17.852;2024-01-07T09:26:06;26.33;;;18.45;;
21727;SDS011;11026;50.560;17.852;2024-01-07T09:31:04;24.88;;;18.45;;
21727;SDS011;11026;50.560;17.852;2024-01-07T09:33:32;26.98;;;20.23;;
21727;SDS011;11026;50.560;17.852;2024-01-07T09:35:59;26.85;;;19.77;;
21727;SDS011;11026;50.560;17.852;2024-01-07T09:38:41;26.13;;;18.30;;
21727;SDS011;11026;50.560;17.852;2024-01-07T09:41:09;37.65;;;23.10;;
21727;SDS011;11026;50.560;17.852;2024-01-07T09:43:38;31.58;;;23.25;;
21727;SDS011;11026;50.560;17.852;2024-01-07T09:48:39;25.10;;;19.08;;
21727;SDS011;11026;50.560;17.852;2024-01-07T09:51:07;25.20;;;19.05;;
21727;SDS011;11026;50.560;17.852;2024-01-07T09:53:38;32.30;;;24.45;;
21727;SDS011;11026;50.560;17.852;2024-01-07T09:56:12;26.00;;;18.92;;
21727;SDS011;11026;50.560;17.852;2024-01-07T09:58:50;38.88;;;29.58;;
21727;SDS011;11026;50.560;17.852;2024-01-07T10:06:22;31.50;;;22.13;;
21727;SDS011;11026;50.560;17.852;2024-01-07T10:08:49;22.73;;;16.98;;
21727;SDS011;11026;50.560;17.852;2024-01-07T10:11:17;20.63;;;16.27;;
21727;SDS011;11026;50.560;17.852;2024-01-07T10:13:49;23.40;;;17.13;;
21727;SDS011;11026;50.560;17.852;2024-01-07T10:16:18;24.70;;;18.70;;
21727;SDS011;11026;50.560;17.852;2024-01-07T10:21:16;25.33;;;18.90;;
21727;SDS011;11026;50.560;17.852;2024-01-07T10:23:44;31.67;;;22.50;;
21727;SDS011;11026;50.560;17.852;2024-01-07T10:26:12;24.40;;;18.10;;
21727;SDS011;11026;50.560;17.852;2024-01-07T10:28:54;22.92;;;17.15;;
21727;SDS011;11026;50.560;17.852;2024-01-07T10:31:21;22.90;;;17.45;;
21727;SDS011;11026;50.560;17.852;2024-01-07T10:33:49;24.63;;;18.52;;
21727;SDS011;11026;50.560;17.852;2024-01-07T10:36:16;21.88;;;16.77;;
21727;SDS011;11026;50.560;17.852;2024-01-07T10:38:46;22.23;;;17.13;;
21727;SDS011;11026;50.560;17.852;2024-01-07T10:43:48;24.58;;;18.15;;
21727;SDS011;11026;50.560;17.852;2024-01-07T10:46:18;24.90;;;19.15;;
21727;SDS011;11026;50.560;17.852;2024-01-07T10:51:16;25.85;;;19.27;;
21727;SDS011;11026;50.560;17.852;2024-01-07T10:53:56;26.33;;;19.85;;
21727;SDS011;11026;50.560;17.852;2024-01-07T10:56:25;24.17;;;16.98;;
21727;SDS011;11026;50.560;17.852;2024-01-07T10:58:59;22.88;;;17.02;;
21727;SDS011;11026;50.560;17.852;2024-01-07T11:01:28;24.50;;;18.10;;
21727;SDS011;11026;50.560;17.852;2024-01-07T11:04:08;25.33;;;18.92;;
21727;SDS011;11026;50.560;17.852;2024-01-07T11:07:11;24.30;;;18.63;;
21727;SDS011;11026;50.560;17.852;2024-01-07T11:09:54;27.35;;;18.73;;
21727;SDS011;11026;50.560;17.852;2024-01-07T11:12:32;29.80;;;20.33;;
21727;SDS011;11026;50.560;17.852;2024-01-07T11:15:00;24.13;;;17.75;;
21727;SDS011;11026;50.560;17.852;2024-01-07T11:20:07;24.60;;;17.05;;
21727;SDS011;11026;50.560;17.852;2024-01-07T11:22:45;26.95;;;20.50;;
21727;SDS011;11026;50.560;17.852;2024-01-07T11:28:10;25.75;;;19.63;;
21727;SDS011;11026;50.560;17.852;2024-01-07T11:30:39;26.98;;;19.13;;
21727;SDS011;11026;50.560;17.852;2024-01-07T11:33:08;27.70;;;20.38;;
21727;SDS011;11026;50.560;17.852;2024-01-07T11:38:47;28.67;;;20.83;;
21727;SDS011;11026;50.560;17.852;2024-01-07T11:41:20;25.63;;;18.48;;
21727;SDS011;11026;50.560;17.852;2024-01-07T11:43:55;27.60;;;19.90;;
21727;SDS011;11026;50.560;17.852;2024-01-07T11:46:31;33.30;;;23.70;;
21727;SDS011;11026;50.560;17.852;2024-01-07T11:48:59;35.35;;;26.10;;
21727;SDS011;11026;50.560;17.852;2024-01-07T11:51:30;41.45;;;31.95;;
21727;SDS011;11026;50.560;17.852;2024-01-07T11:54:00;54.38;;;38.67;;
21727;SDS011;11026;50.560;17.852;2024-01-07T11:56:28;41.42;;;30.60;;
21727;SDS011;11026;50.560;17.852;2024-01-07T11:58:57;31.20;;;22.38;;
21727;SDS011;11026;50.560;17.852;2024-01-07T12:01:25;45.20;;;32.08;;
21727;SDS011;11026;50.560;17.852;2024-01-07T12:03:53;28.23;;;21.80;;
21727;SDS011;11026;50.560;17.852;2024-01-07T12:06:21;27.48;;;20.55;;
21727;SDS011;11026;50.560;17.852;2024-01-07T12:08:48;27.10;;;20.67;;
21727;SDS011;11026;50.560;17.852;2024-01-07T12:11:16;26.60;;;20.45;;
21727;SDS011;11026;50.560;17.852;2024-01-07T12:13:46;29.40;;;22.27;;
21727;SDS011;11026;50.560;17.852;2024-01-07T12:16:14;26.40;;;20.23;;
21727;SDS011;11026;50.560;17.852;2024-01-07T12:18:42;29.13;;;21.58;;
21727;SDS011;11026;50.560;17.852;2024-01-07T12:23:47;33.83;;;23.95;;
21727;SDS011;11026;50.560;17.852;2024-01-07T12:28:59;32.30;;;23.50;;
21727;SDS011;11026;50.560;17.852;2024-01-07T12:31:33;33.72;;;24.00;;
21727;SDS011;11026;50.560;17.852;2024-01-07T12:34:04;32.63;;;23.75;;
21727;SDS011;11026;50.560;17.852;2024-01-07T12:36:33;35.13;;;24.33;;
21727;SDS011;11026;50.560;17.852;2024-01-07T12:39:01;39.42;;;28.50;;
21727;SDS011;11026;50.560;17.852;2024-01-07T12:46:31;36.78;;;25.65;;
21727;SDS011;11026;50.560;17.852;2024-01-07T12:48:59;34.83;;;25.02;;
21727;SDS011;11026;50.560;17.852;2024-01-07T12:51:27;35.88;;;25.92;;
21727;SDS011;11026;50.560;17.852;2024-01-07T12:53:55;48.47;;;31.35;;
21727;SDS011;11026;50.560;17.852;2024-01-07T12:58:53;43.03;;;28.55;;
21727;SDS011;11026;50.560;17.852;2024-01-07T13:01:23;50.97;;;32.47;;
21727;SDS011;11026;50.560;17.852;2024-01-07T13:03:50;44.47;;;30.15;;
21727;SDS011;11026;50.560;17.852;2024-01-07T13:06:17;50.78;;;30.85;;
21727;SDS011;11026;50.560;17.852;2024-01-07T13:11:16;36.30;;;26.38;;
21727;SDS011;11026;50.560;17.852;2024-01-07T13:13:44;34.33;;;25.35;;
21727;SDS011;11026;50.560;17.852;2024-01-07T13:16:12;35.88;;;26.08;;
21727;SDS011;11026;50.560;17.852;2024-01-07T13:18:40;36.45;;;25.33;;
21727;SDS011;11026;50.560;17.852;2024-01-07T13:21:07;34.25;;;24.30;;
21727;SDS011;11026;50.560;17.852;2024-01-07T13:23:36;36.70;;;26.63;;
21727;SDS011;11026;50.560;17.852;2024-01-07T13:26:05;37.53;;;25.85;;
21727;SDS011;11026;50.560;17.852;2024-01-07T13:28:33;39.15;;;28.83;;
21727;SDS011;11026;50.560;17.852;2024-01-07T13:31:02;40.72;;;28.58;;
21727;SDS011;11026;50.560;17.852;2024-01-07T13:33:30;46.78;;;31.70;;
21727;SDS011;11026;50.560;17.852;2024-01-07T13:35:59;68.65;;;40.60;;
21727;SDS011;11026;50.560;17.852;2024-01-07T13:38:26;69.78;;;42.35;;
21727;SDS011;11026;50.560;17.852;2024-01-07T13:40:54;72.03;;;43.58;;
21727;SDS011;11026;50.560;17.852;2024-01-07T13:43:24;73.80;;;44.75;;
21727;SDS011;11026;50.560;17.852;2024-01-07T13:45:55;47.45;;;32.00;;
21727;SDS011;11026;50.560;17.852;2024-01-07T13:48:25;45.83;;;33.08;;
21727;SDS011;11026;50.560;17.852;2024-01-07T13:50:52;46.17;;;32.13;;
21727;SDS011;11026;50.560;17.852;2024-01-07T13:53:22;39.13;;;28.48;;
21727;SDS011;11026;50.560;17.852;2024-01-07T13:55:49;40.08;;;28.73;;
21727;SDS011;11026;50.560;17.852;2024-01-07T13:58:17;43.30;;;29.30;;
21727;SDS011;11026;50.560;17.852;2024-01-07T14:00:47;43.15;;;28.30;;
21727;SDS011;11026;50.560;17.852;2024-01-07T14:03:15;43.75;;;30.38;;
21727;SDS011;11026;50.560;17.852;2024-01-07T14:05:43;44.10;;;31.23;;
21727;SDS011;11026;50.560;17.852;2024-01-07T14:08:11;41.63;;;28.63;;
21727;SDS011;11026;50.560;17.852;2024-01-07T14:10:40;42.90;;;29.75;;
21727;SDS011;11026;50.560;17.852;2024-01-07T14:13:07;41.22;;;29.42;;
21727;SDS011;11026;50.560;17.852;2024-01-07T14:15:35;43.25;;;30.67;;
21727;SDS011;11026;50.560;17.852;2024-01-07T14:18:02;43.35;;;30.15;;
21727;SDS011;11026;50.560;17.852;2024-01-07T14:20:31;43.20;;;29.63;;
21727;SDS011;11026;50.560;17.852;2024-01-07T14:23:00;44.72;;;31.20;;
21727;SDS011;11026;50.560;17.852;2024-01-07T14:25:29;46.22;;;31.88;;
21727;SDS011;11026;50.560;17.852;2024-01-07T14:27:57;47.30;;;34.13;;
21727;SDS011;11026;50.560;17.852;2024-01-07T14:30:24;47.85;;;33.72;;
21727;SDS011;11026;50.560;17.852;2024-01-07T14:32:51;48.45;;;33.30;;
21727;SDS011;11026;50.560;17.852;2024-01-07T14:35:19;48.58;;;34.45;;
21727;SDS011;11026;50.560;17.852;2024-01-07T14:37:46;47.53;;;33.80;;
21727;SDS011;11026;50.560;17.852;2024-01-07T14:40:14;46.67;;;33.08;;
21727;SDS011;11026;50.560;17.852;2024-01-07T14:42:41;49.97;;;34.83;;
21727;SDS011;11026;50.560;17.852;2024-01-07T14:45:12;51.85;;;35.90;;
21727;SDS011;11026;50.560;17.852;2024-01-07T14:47:41;62.90;;;42.05;;
21727;SDS011;11026;50.560;17.852;2024-01-07T14:50:08;74.60;;;45.38;;
21727;SDS011;11026;50.560;17.852;2024-01-07T14:52:37;82.25;;;45.88;;
21727;SDS011;11026;50.560;17.852;2024-01-07T14:55:06;87.78;;;47.22;;
21727;SDS011;11026;50.560;17.852;2024-01-07T14:57:33;95.82;;;49.65;;
21727;SDS011;11026;50.560;17.852;2024-01-07T15:00:01;109.95;;;53.47;;
21727;SDS011;11026;50.560;17.852;2024-01-07T15:02:28;118.07;;;55.08;;
21727;SDS011;11026;50.560;17.852;2024-01-07T15:04:56;127.53;;;57.60;;
21727;SDS011;11026;50.560;17.852;2024-01-07T15:07:24;100.60;;;52.47;;
21727;SDS011;11026;50.560;17.852;2024-01-07T15:09:51;199.95;;;76.78;;
21727;SDS011;11026;50.560;17.852;2024-01-07T15:12:19;143.25;;;59.33;;
21727;SDS011;11026;50.560;17.852;2024-01-07T15:14:47;219.35;;;78.68;;
21727;SDS011;11026;50.560;17.852;2024-01-07T15:17:16;125.57;;;59.78;;
21727;SDS011;11026;50.560;17.852;2024-01-07T15:19:46;89.65;;;48.90;;
21727;SDS011;11026;50.560;17.852;2024-01-07T15:22:13;138.95;;;59.92;;
21727;SDS011;11026;50.560;17.852;2024-01-07T15:27:11;194.68;;;72.30;;
21727;SDS011;11026;50.560;17.852;2024-01-07T15:32:06;173.07;;;70.95;;
21727;SDS011;11026;50.560;17.852;2024-01-07T15:34:33;273.75;;;100.50;;